<<    Mai 2010    >>
Datum    Temp.       Tempmin      Tempmax    Taup.       Taup.min      Taup.max    Feuchte    Feuchtemin    Feuchtemax    Druck    Druckmin    Druckmax    Regen    Wind    Benmax  
  01.05.2010  13,7    9,3    00:54    19,8    15:04  5,2    2,5    16:31    9,5    22:23  59,0    34    16:00    88    23:59  1010,3    1009    06:20    1012    00:19  0,0  1,9  19,4  
  02.05.2010  11,7    8,1    23:58    17,5    15:34  9,8    5,7    16:09    12,7    13:08  88,6    56    15:58    97    23:12  1008,8    1006    15:24    1012    00:00  4,6  0,8  18,4  
  03.05.2010  9,0    6,0    02:42    12,0    16:09  6,5    4,8    15:51    8,9    08:36  85,2    63    16:11    98    00:30  1011,4    1007    01:24    1016    21:39  0,0  2,2  12,6  
  04.05.2010  9,6    6,7    23:59    13,3    17:20  2,5    -3,1    21:18    7,4    01:16  64,2    37    17:25    94    05:24  1019,3    1016    00:00    1021    08:24  0,0  5,2  23,8  
  05.05.2010  8,9    1,9    04:21    14,5    17:15  -0,9    -2,7    21:19    1,7    07:40  52,9    34    18:47    83    06:48  1016,9    1010    23:59    1021    00:00  0,0  4,7  23,4  
  06.05.2010  7,8    6,0    23:59    9,1    00:00  3,5    -1,7    00:14    7,8    16:22  76,9    47    00:00    98    23:57  1006,1    1004    18:09    1010    00:00  12,3  4,0  17,3  
  07.05.2010  6,5    4,7    07:06    8,4    17:02  5,7    4,4    07:06    6,8    23:59  94,3    86    17:12    98    00:00  1006,7    1005    00:00    1009    16:38  6,8  1,4  9,0  
  08.05.2010  9,9    6,6    23:50    14,8    17:50  6,1    3,8    18:38    8,9    11:51  79,7    49    18:05    98    00:09  1009,2    1008    00:00    1010    09:08  0,0  0,7  9,0  
  09.05.2010  11,9    5,1    06:14    18,7    13:54  5,4    3,5    16:04    8,9    08:48  68,5    39    14:11    97    06:55  1008,8    1007    14:53    1011    02:24  0,0  2,4  16,9  
  10.05.2010  11,4    7,7    23:59    15,2    14:20  4,1    1,7    19:45    6,6    00:00  62,0    44    14:24    83    05:26  1008,8    1007    04:37    1010    23:59  0,0  3,8  15,5  
  11.05.2010  8,7    4,8    04:02    12,5    16:28  4,7    1,5    00:26    7,8    21:18  76,6    62    16:31    98    22:09  1007,1    1004    18:07    1010    00:00  5,5  3,0  16,6  
  12.05.2010  7,1    5,5    07:43    8,9    15:12  5,9    5,2    07:43    7,0    00:00  92,3    81    15:34    98    00:00  1008,4    1003    00:22    1013    23:07  3,9  3,4  15,8  
  13.05.2010  8,0    6,7    05:30    10,5    15:44  5,7    4,5    17:38    6,9    23:43  85,8    69    16:09    96    23:59  1012,6    1011    03:53    1013    00:00  0,0  1,9  9,7  
  14.05.2010  10,0    7,2    06:00    13,3    14:22  6,0    3,7    14:37    8,9    08:15  78,1    53    14:37    98    03:04  1011,9    1011    03:38    1013    00:00  1,9  2,1  12,6  
  15.05.2010  11,5    8,1    05:54    15,5    15:06  3,2    -0,9    14:27    7,1    07:50  60,7    35    13:07    90    06:30  1011,8    1011    04:21    1013    00:06  0,0  3,1  16,9  
  16.05.2010  13,1    8,0    02:15    19,1    16:40  4,1    1,9    12:49    6,4    08:20  57,8    34    15:28    86    04:42  1015,0    1012    00:00    1018    22:21  0,0  3,5  16,9  
  17.05.2010  11,2    7,3    02:12    16,7    14:48  6,6    3,5    02:05    10,7    11:53  74,1    46    16:35    91    23:40  1020,6    1018    00:00    1025    22:21  1,8  1,9  14,8  
  18.05.2010  11,5    5,7    06:00    17,5    17:17  4,6    0,4    20:37    8,7    08:22  66,7    37    17:15    97    06:20  1026,3    1025    00:00    1028    08:06  0,0  3,4  17,3  
  19.05.2010  12,0    6,7    03:10    17,4    14:26  3,8    0,9    00:00    6,8    09:29  60,5    37    13:57    89    05:41  1026,1    1025    00:00    1028    23:35  0,0  4,5  23,8  
  20.05.2010  15,6    10,1    05:56    21,8    16:54  4,3    2,2    02:14    5,6    09:55  48,7    33    16:04    67    05:39  1028,4    1027    00:51    1030    09:06  0,0  4,7  19,8  
  21.05.2010  16,3    9,2    03:34    22,4    15:51  7,5    5,3    00:07    10,0    08:21  58,2    36    17:50    83    05:43  1027,4    1025    18:50    1029    00:20  0,0  2,4  15,8  
  22.05.2010  16,6    9,5    05:41    23,9    17:15  8,5    7,0    05:30    10,2    22:22  61,2    39    16:42    86    06:17  1024,9    1022    19:35    1027    01:22  0,0  3,1  15,5  
  23.05.2010  18,1    11,4    06:04    26,0    16:49  10,6    9,5    05:09    12,0    09:37  64,8    38    17:22    92    07:06  1021,2    1017    20:50    1024    00:21  0,0  2,8  15,1  
  24.05.2010  20,3    13,1    04:54    28,0    14:52  10,7    8,3    21:24    14,0    10:18  57,9    31    15:10    89    06:49  1012,6    1009    16:04    1018    00:00  0,0  3,0  21,2  
  25.05.2010  18,0    14,6    03:26    22,6    17:09  7,4    3,8    22:09    11,0    04:05  52,5    33    15:28    77    04:05  1010,8    1009    16:34    1012    04:19  0,0  3,6  15,5  
  26.05.2010  12,6    9,9    23:59    15,6    00:00  7,8    2,6    05:14    13,2    17:28  76,0    46    00:00    98    23:59  1007,4    1004    17:04    1010    00:00  16,2  2,7  14,8  
  27.05.2010  13,8    9,5    06:43    20,0    15:58  8,7    5,5    15:59    11,0    23:59  74,4    39    15:59    98    00:00  1008,4    1007    00:00    1010    10:05  0,9  2,0  12,2  
  28.05.2010  15,4    10,9    23:59    20,8    15:56  8,1    3,6    22:09    12,4    09:00  65,8    35    17:22    96    07:01  1012,4    1009    00:00    1018    22:48  1,0  2,7  17,6  
  29.05.2010  16,2    8,6    03:40    24,1    14:43  6,0    3,5    15:20    9,7    23:58  55,4    27    15:14    85    06:40  1015,8    1011    22:03    1019    00:48  0,0  2,1  12,2  
  30.05.2010  13,7    8,4    23:24    18,1    13:31  11,3    6,9    19:55    14,1    08:13  86,1    66    13:46    98    05:51  1007,0    1005    06:03    1011    00:00  11,4  3,0  24,5  
  31.05.2010  12,0    8,9    01:57    15,5    13:09  10,5    7,5    01:04    13,2    18:17  90,9    68    13:17    98    23:59  1011,8    1008    00:03    1016    20:48  3,9  3,7  16,9  
 
  Gesamt  12,3  1,9            28,0            6,3  -3,1            14,1            70,2  27            98            1014,0  1003            1030            70,2  2,9  24,5  
 
  Mittelwert  12,3  7,9            17,2            6,3  3,4            9,2            70,2  46,3            91,7            1014,0  1011,4            1016,7            2,3  2,9  16,5  
  Minimum  6,5  1,9            8,4            -0,9  -3,1            1,7            48,7  27,0            67,0            1006,1  1003,0            1009,0            0,0  0,7  9,0  
  Maximum  20,3  14,6            28,0            11,3  9,5            14,1            94,3  86,0            98,0            1028,4  1027,0            1030,0            16,2  5,2  24,5  

  Heie Tage    Tmax >=30C     0  
  Sommertage    Tmax >=25C     2  
  Warme Tage    Tmax >=20C     9  
  Kalte Tage    Tmax  <10C     3  
  Frosttage    Tmin  <0C     0  
  Eistage    Tmax  <0C     0  
  Regentage > 0 mm    12  
  Regentage > 2 mm    8  
  Regentage > 10 mm    3  
  Regentage > 20 mm    0